Time;durP1;ratioP1;P1;durP2;ratioP2;P2;SDS_P1;SDS_P2;PMS_P1;PMS_P2;Temp;Humidity;BMP_temperature;BMP_pressure;BME280_temperature;BME280_humidity;BME280_pressure;Samples;Min_cycle;Max_cycle;Signal;HPM_P1;HPM_P2
2021/01/19 00:02:19;;;;;;;;;47.50;40.50;;;;;;;;5018785;28;8994;-69
2021/01/19 00:04:45;;;;;;;;;58.00;48.75;;;;;;;;5021655;28;8910;-69
2021/01/19 00:07:11;;;;;;;;;48.25;44.00;;;;;;;;5023381;28;8918;-69
2021/01/19 00:09:37;;;;;;;;;65.25;48.25;;;;;;;;5020389;28;8831;-69
2021/01/19 00:12:03;;;;;;;;;55.75;45.00;;;;;;;;5017929;28;8851;-68
2021/01/19 00:14:30;;;;;;;;;45.25;39.25;;;;;;;;5024971;28;8820;-69
2021/01/19 00:16:55;;;;;;;;;65.25;48.25;;;;;;;;5018588;28;8889;-69
2021/01/19 00:19:21;;;;;;;;;54.00;46.00;;;;;;;;5022033;28;8825;-69
2021/01/19 00:21:47;;;;;;;;;56.25;44.50;;;;;;;;5018471;28;9036;-70
2021/01/19 00:24:13;;;;;;;;;63.75;49.50;;;;;;;;5021285;28;8829;-69
2021/01/19 00:26:40;;;;;;;;;59.75;47.25;;;;;;;;5021738;28;9681;-69
2021/01/19 00:29:06;;;;;;;;;60.50;48.00;;;;;;;;5021542;28;8858;-69
2021/01/19 00:31:33;;;;;;;;;62.00;49.00;;;;;;;;5020590;28;8837;-70
2021/01/19 00:33:59;;;;;;;;;48.25;42.00;;;;;;;;5022685;28;8973;-68
2021/01/19 00:36:25;;;;;;;;;63.75;50.00;;;;;;;;5024998;28;8833;-69
2021/01/19 00:38:51;;;;;;;;;61.00;51.50;;;;;;;;5029592;28;8895;-68
2021/01/19 00:41:17;;;;;;;;;52.00;43.75;;;;;;;;5029407;28;8832;-69
2021/01/19 00:43:42;;;;;;;;;55.25;46.50;;;;;;;;5026243;28;8871;-69
2021/01/19 00:46:08;;;;;;;;;56.25;47.50;;;;;;;;5023870;28;8812;-69
2021/01/19 00:48:35;;;;;;;;;54.25;44.25;;;;;;;;5023244;28;9709;-69
2021/01/19 00:51:01;;;;;;;;;55.50;44.50;;;;;;;;5027169;28;8961;-69
2021/01/19 00:53:27;;;;;;;;;54.25;45.25;;;;;;;;5028215;28;8880;-69
2021/01/19 00:55:53;;;;;;;;;50.75;43.25;;;;;;;;5021524;28;8847;-69
2021/01/19 00:58:19;;;;;;;;;54.50;43.75;;;;;;;;5029194;28;8825;-69
2021/01/19 01:00:45;;;;;;;;;53.25;45.00;;;;;;;;5025424;28;8863;-70
2021/01/19 01:03:11;;;;;;;;;42.75;39.25;;;;;;;;5024097;28;8843;-70
2021/01/19 01:05:38;;;;;;;;;57.00;44.50;;;;;;;;5024219;28;8887;-68
2021/01/19 01:08:04;;;;;;;;;54.00;45.50;;;;;;;;5027537;28;9668;-70
2021/01/19 01:10:30;;;;;;;;;56.00;46.25;;;;;;;;5022353;28;8958;-69
2021/01/19 01:12:55;;;;;;;;;51.00;44.50;;;;;;;;5028349;28;9254;-69
2021/01/19 01:15:29;;;;;;;;;49.75;43.75;;;;;;;;5025403;28;8860;-70
2021/01/19 01:17:54;;;;;;;;;51.75;45.00;;;;;;;;5021447;28;8946;-69
2021/01/19 01:20:20;;;;;;;;;49.00;44.50;;;;;;;;5024548;28;8848;-69
2021/01/19 01:22:47;;;;;;;;;48.25;41.75;;;;;;;;5020801;28;8854;-69
2021/01/19 01:25:14;;;;;;;;;48.25;42.25;;;;;;;;5023939;28;8809;-68
2021/01/19 01:27:41;;;;;;;;;56.75;45.00;;;;;;;;5025502;28;9061;-69
2021/01/19 01:30:08;;;;;;;;;52.25;44.50;;;;;;;;5023030;28;8969;-70
2021/01/19 01:32:34;;;;;;;;;49.25;44.00;;;;;;;;5022153;28;9585;-69
2021/01/19 01:34:59;;;;;;;;;55.50;48.00;;;;;;;;5021892;28;8885;-70
2021/01/19 01:37:25;;;;;;;;;51.50;43.75;;;;;;;;5027786;28;8845;-70
2021/01/19 01:39:52;;;;;;;;;51.75;44.00;;;;;;;;5024782;28;8968;-70
2021/01/19 01:42:20;;;;;;;;;49.00;42.00;;;;;;;;5028645;28;8831;-69
2021/01/19 01:44:46;;;;;;;;;46.50;41.50;;;;;;;;5024193;28;8960;-68
2021/01/19 01:47:16;;;;;;;;;52.75;44.00;;;;;;;;5020738;28;8940;-69
2021/01/19 01:49:42;;;;;;;;;55.25;45.50;;;;;;;;5023135;28;9074;-68
2021/01/19 01:52:08;;;;;;;;;45.00;40.50;;;;;;;;5021627;28;9766;-68
2021/01/19 01:54:34;;;;;;;;;53.25;44.00;;;;;;;;5021793;28;8969;-69
2021/01/19 01:57:01;;;;;;;;;50.00;42.00;;;;;;;;5022584;28;8825;-69
2021/01/19 01:59:27;;;;;;;;;43.50;40.50;;;;;;;;5021002;28;8904;-69
2021/01/19 02:01:53;;;;;;;;;48.00;43.75;;;;;;;;5023447;28;8853;-69
2021/01/19 02:04:19;;;;;;;;;47.25;41.50;;;;;;;;5020543;28;8831;-69
2021/01/19 02:06:46;;;;;;;;;46.50;41.50;;;;;;;;5023038;28;8883;-68
2021/01/19 02:09:18;;;;;;;;;54.25;44.75;;;;;;;;5020799;28;8966;-68
2021/01/19 02:11:48;;;;;;;;;51.00;43.00;;;;;;;;5027134;28;8975;-69
2021/01/19 02:14:21;;;;;;;;;48.75;41.00;;;;;;;;5027589;28;8813;-69
2021/01/19 02:16:56;;;;;;;;;46.75;40.25;;;;;;;;5023018;28;8991;-69
2021/01/19 02:19:41;;;;;;;;;42.50;37.25;;;;;;;;5024148;28;8947;-69
2021/01/19 02:22:19;;;;;;;;;48.75;40.75;;;;;;;;5022071;28;8838;-68
2021/01/19 02:24:52;;;;;;;;;48.50;41.50;;;;;;;;5028003;28;9667;-68
2021/01/19 02:27:32;;;;;;;;;47.75;43.00;;;;;;;;5020095;28;8815;-69
2021/01/19 02:30:07;;;;;;;;;47.50;41.25;;;;;;;;5020597;28;8865;-68
2021/01/19 02:32:40;;;;;;;;;48.00;42.75;;;;;;;;5021570;28;8955;-69
2021/01/19 02:35:11;;;;;;;;;50.00;41.50;;;;;;;;5021664;28;8839;-69
2021/01/19 02:37:39;;;;;;;;;51.75;44.25;;;;;;;;5024604;28;8959;-69
2021/01/19 02:40:06;;;;;;;;;53.25;44.00;;;;;;;;5029688;28;8953;-69
2021/01/19 02:42:36;;;;;;;;;58.00;44.00;;;;;;;;5022704;28;8976;-69
2021/01/19 02:45:04;;;;;;;;;57.25;45.75;;;;;;;;5022941;28;8853;-70
2021/01/19 02:47:30;;;;;;;;;51.50;43.00;;;;;;;;5021624;28;8951;-69
2021/01/19 02:49:56;;;;;;;;;53.50;46.25;;;;;;;;5020070;28;8839;-69
2021/01/19 02:52:22;;;;;;;;;50.50;42.50;;;;;;;;5022621;28;8836;-69
2021/01/19 02:54:49;;;;;;;;;56.75;44.50;;;;;;;;5022570;28;8970;-69
2021/01/19 02:57:25;;;;;;;;;49.50;41.00;;;;;;;;5022607;28;8817;-69
2021/01/19 02:59:59;;;;;;;;;54.25;45.25;;;;;;;;5026986;28;9736;-69
2021/01/19 03:02:29;;;;;;;;;53.75;43.50;;;;;;;;5023358;28;8839;-69
2021/01/19 03:04:58;;;;;;;;;49.25;43.00;;;;;;;;5019829;28;8855;-69
2021/01/19 03:07:26;;;;;;;;;45.00;40.75;;;;;;;;5026617;28;8959;-69
2021/01/19 03:09:52;;;;;;;;;43.00;39.75;;;;;;;;5022582;28;8844;-69
2021/01/19 03:12:19;;;;;;;;;48.75;40.25;;;;;;;;5022633;28;8957;-69
2021/01/19 03:14:48;;;;;;;;;51.75;46.00;;;;;;;;5023297;28;8961;-69
2021/01/19 03:17:14;;;;;;;;;49.25;41.25;;;;;;;;5025868;28;8845;-69
2021/01/19 03:19:41;;;;;;;;;46.25;41.25;;;;;;;;5026113;28;8851;-70
2021/01/19 03:22:07;;;;;;;;;52.00;45.00;;;;;;;;5026730;28;8963;-69
2021/01/19 03:24:34;;;;;;;;;53.75;44.75;;;;;;;;5022076;28;8845;-70
2021/01/19 03:26:59;;;;;;;;;55.75;44.50;;;;;;;;5022443;28;9063;-69
2021/01/19 03:29:26;;;;;;;;;65.00;50.00;;;;;;;;5022240;28;9560;-70
2021/01/19 03:31:52;;;;;;;;;58.75;50.00;;;;;;;;5026454;28;8817;-69
2021/01/19 03:34:18;;;;;;;;;64.25;51.50;;;;;;;;5022089;28;8953;-69
2021/01/19 03:36:44;;;;;;;;;65.25;53.75;;;;;;;;5022081;28;8852;-69
2021/01/19 03:39:10;;;;;;;;;60.00;50.50;;;;;;;;5023999;28;8849;-69
2021/01/19 03:41:36;;;;;;;;;66.50;52.75;;;;;;;;5024353;28;8948;-70
2021/01/19 03:44:03;;;;;;;;;54.25;45.00;;;;;;;;5025013;28;8833;-70
2021/01/19 03:46:29;;;;;;;;;53.50;47.00;;;;;;;;5019347;28;8970;-69
2021/01/19 03:48:55;;;;;;;;;56.50;48.00;;;;;;;;5021850;28;8887;-70
2021/01/19 03:51:22;;;;;;;;;64.75;48.25;;;;;;;;5026366;28;8837;-70
2021/01/19 03:53:48;;;;;;;;;62.25;51.00;;;;;;;;5022874;28;8830;-69
2021/01/19 03:56:14;;;;;;;;;58.25;45.00;;;;;;;;5021432;28;8841;-70
2021/01/19 03:58:41;;;;;;;;;59.00;47.50;;;;;;;;5019434;28;9521;-70
2021/01/19 04:01:07;;;;;;;;;47.00;40.50;;;;;;;;5024316;28;8885;-70
2021/01/19 04:03:33;;;;;;;;;51.75;45.00;;;;;;;;5021656;28;8849;-70
2021/01/19 04:05:59;;;;;;;;;53.25;45.25;;;;;;;;5021929;28;9001;-70
2021/01/19 04:08:25;;;;;;;;;50.75;45.00;;;;;;;;5024727;28;8845;-69
2021/01/19 04:10:51;;;;;;;;;57.25;46.75;;;;;;;;5022547;28;8977;-69
2021/01/19 04:13:17;;;;;;;;;62.75;47.75;;;;;;;;5025562;28;8840;-69
2021/01/19 04:15:43;;;;;;;;;62.75;48.50;;;;;;;;5022669;28;8867;-69
2021/01/19 04:18:09;;;;;;;;;50.00;41.50;;;;;;;;5022330;28;8919;-69
2021/01/19 04:20:35;;;;;;;;;62.75;47.25;;;;;;;;5023496;28;8949;-69
2021/01/19 04:23:01;;;;;;;;;48.00;45.00;;;;;;;;5024369;28;8825;-69
2021/01/19 04:25:27;;;;;;;;;56.25;45.75;;;;;;;;5022637;28;8843;-69
2021/01/19 04:27:53;;;;;;;;;46.75;40.00;;;;;;;;5025202;28;8840;-69
2021/01/19 04:30:20;;;;;;;;;46.50;42.75;;;;;;;;5021925;28;8912;-68
2021/01/19 04:32:47;;;;;;;;;47.75;43.75;;;;;;;;5024847;28;8959;-68
2021/01/19 04:35:13;;;;;;;;;47.25;39.25;;;;;;;;5022520;28;8850;-69
2021/01/19 04:37:39;;;;;;;;;50.25;44.25;;;;;;;;5021493;28;8955;-69
2021/01/19 04:40:06;;;;;;;;;49.75;41.75;;;;;;;;5023627;28;8874;-69
2021/01/19 04:42:33;;;;;;;;;42.25;40.00;;;;;;;;5025210;28;8827;-69
2021/01/19 04:45:00;;;;;;;;;48.75;42.00;;;;;;;;5024122;28;8967;-69
2021/01/19 04:47:27;;;;;;;;;55.75;45.75;;;;;;;;5021837;28;8838;-69
2021/01/19 04:49:54;;;;;;;;;55.50;46.00;;;;;;;;5024995;28;9715;-69
2021/01/19 04:52:22;;;;;;;;;60.00;49.00;;;;;;;;5021653;28;8842;-69
2021/01/19 04:54:58;;;;;;;;;61.25;50.00;;;;;;;;5025348;28;8862;-69
2021/01/19 04:57:28;;;;;;;;;55.25;46.50;;;;;;;;5025247;28;8817;-69
2021/01/19 04:59:59;;;;;;;;;62.00;48.75;;;;;;;;5021792;28;8969;-69
2021/01/19 05:02:45;;;;;;;;;58.75;48.00;;;;;;;;5024053;28;8853;-69
2021/01/19 05:05:26;;;;;;;;;61.50;49.25;;;;;;;;5023926;28;8962;-69
2021/01/19 05:08:04;;;;;;;;;60.75;50.25;;;;;;;;5025694;28;8975;-70
2021/01/19 05:10:34;;;;;;;;;64.25;52.75;;;;;;;;5022013;28;9701;-70
2021/01/19 05:13:05;;;;;;;;;64.00;51.25;;;;;;;;5024768;28;8929;-69
2021/01/19 05:15:31;;;;;;;;;64.75;52.25;;;;;;;;5024192;28;8967;-70
2021/01/19 05:17:57;;;;;;;;;59.25;49.00;;;;;;;;5024039;28;8846;-70
2021/01/19 05:20:30;;;;;;;;;62.75;48.75;;;;;;;;5023965;28;8845;-70
2021/01/19 05:22:56;;;;;;;;;58.50;48.25;;;;;;;;5025568;28;8864;-70
2021/01/19 05:25:23;;;;;;;;;58.25;46.25;;;;;;;;5027991;28;8995;-70
2021/01/19 05:27:49;;;;;;;;;51.75;45.50;;;;;;;;5028891;28;8876;-70
2021/01/19 05:30:15;;;;;;;;;64.25;50.00;;;;;;;;5021013;28;8850;-70
2021/01/19 05:32:42;;;;;;;;;53.25;46.50;;;;;;;;5024503;28;8817;-69
2021/01/19 05:35:16;;;;;;;;;61.75;49.25;;;;;;;;5023069;28;8845;-70
2021/01/19 05:37:55;;;;;;;;;66.75;56.00;;;;;;;;5021613;28;9269;-69
2021/01/19 05:40:21;;;;;;;;;62.75;51.75;;;;;;;;5021296;28;8837;-70
2021/01/19 05:42:47;;;;;;;;;59.00;49.75;;;;;;;;5028621;28;8852;-70
2021/01/19 05:45:13;;;;;;;;;59.00;47.00;;;;;;;;5032532;28;8983;-69
2021/01/19 05:47:39;;;;;;;;;65.25;52.50;;;;;;;;5023380;28;8986;-69
2021/01/19 05:50:08;;;;;;;;;62.00;49.25;;;;;;;;5027943;28;8821;-70
2021/01/19 05:52:36;;;;;;;;;56.75;48.00;;;;;;;;5023390;28;8971;-69
2021/01/19 05:55:03;;;;;;;;;68.25;54.50;;;;;;;;5026331;28;8879;-70
2021/01/19 05:57:29;;;;;;;;;65.75;51.00;;;;;;;;5025362;28;8951;-70
2021/01/19 05:59:56;;;;;;;;;62.25;49.25;;;;;;;;5023578;28;8863;-69
2021/01/19 06:02:35;;;;;;;;;66.00;51.00;;;;;;;;5027765;28;9043;-69
2021/01/19 06:05:07;;;;;;;;;67.75;52.00;;;;;;;;5025420;28;8840;-69
2021/01/19 06:07:34;;;;;;;;;57.50;48.00;;;;;;;;5023263;28;8849;-69
2021/01/19 06:10:07;;;;;;;;;59.25;50.00;;;;;;;;5019404;28;8831;-68
2021/01/19 06:12:35;;;;;;;;;64.50;51.50;;;;;;;;5026235;28;8972;-70
2021/01/19 06:15:01;;;;;;;;;65.00;51.25;;;;;;;;5026347;28;8832;-69
2021/01/19 06:17:27;;;;;;;;;69.00;51.50;;;;;;;;5024305;28;8849;-71
2021/01/19 06:19:54;;;;;;;;;69.75;55.50;;;;;;;;5022941;28;8852;-70
2021/01/19 06:22:21;;;;;;;;;71.00;58.75;;;;;;;;5019984;28;8966;-70
2021/01/19 06:24:47;;;;;;;;;68.50;55.00;;;;;;;;5027169;28;8845;-70
2021/01/19 06:27:24;;;;;;;;;69.50;56.25;;;;;;;;5027191;28;9660;-70
2021/01/19 06:29:52;;;;;;;;;68.75;54.50;;;;;;;;5023265;28;8844;-69
2021/01/19 06:32:19;;;;;;;;;73.00;54.75;;;;;;;;5024366;28;8897;-69
2021/01/19 06:34:45;;;;;;;;;68.50;55.50;;;;;;;;5023626;28;8983;-69
2021/01/19 06:37:23;;;;;;;;;66.50;53.25;;;;;;;;5023902;28;9573;-70
2021/01/19 06:39:54;;;;;;;;;58.75;48.75;;;;;;;;5019395;28;8881;-73
2021/01/19 06:42:25;;;;;;;;;65.00;54.50;;;;;;;;5019185;28;9004;-76
2021/01/19 06:44:54;;;;;;;;;64.00;52.50;;;;;;;;5023510;28;9671;-72
2021/01/19 06:47:20;;;;;;;;;64.75;51.50;;;;;;;;5022466;28;8955;-72
2021/01/19 06:49:46;;;;;;;;;68.75;55.75;;;;;;;;5018958;28;8928;-77
2021/01/19 06:52:13;;;;;;;;;50.75;44.75;;;;;;;;5020802;28;8853;-74
2021/01/19 06:54:51;;;;;;;;;61.75;51.25;;;;;;;;5022191;28;9117;-72
2021/01/19 06:57:29;;;;;;;;;65.50;53.75;;;;;;;;5021299;28;8957;-77
2021/01/19 07:00:03;;;;;;;;;66.50;54.50;;;;;;;;5026402;28;8937;-76
2021/01/19 07:02:33;;;;;;;;;67.50;55.25;;;;;;;;5018136;28;9005;-78
2021/01/19 07:05:07;;;;;;;;;71.25;56.50;;;;;;;;5024224;28;8984;-75
2021/01/19 07:07:36;;;;;;;;;69.25;55.00;;;;;;;;5022219;28;8914;-80
2021/01/19 07:10:04;;;;;;;;;73.50;57.75;;;;;;;;5028549;28;8918;-73
2021/01/19 07:12:49;;;;;;;;;74.25;59.50;;;;;;;;5024181;28;8836;-81
2021/01/19 07:15:20;;;;;;;;;73.00;57.50;;;;;;;;5027574;28;9032;-74
2021/01/19 07:18:02;;;;;;;;;75.25;61.25;;;;;;;;5022743;28;9009;-75
2021/01/19 07:20:30;;;;;;;;;78.75;62.25;;;;;;;;5021307;28;8852;-75
2021/01/19 07:23:00;;;;;;;;;73.00;58.25;;;;;;;;5020096;28;8914;-76
2021/01/19 07:25:26;;;;;;;;;54.00;48.75;;;;;;;;5020730;28;8943;-75
2021/01/19 07:27:52;;;;;;;;;69.00;58.50;;;;;;;;5018652;28;8858;-78
2021/01/19 07:30:21;;;;;;;;;78.25;57.50;;;;;;;;5021027;28;8840;-76
2021/01/19 07:32:48;;;;;;;;;74.75;59.00;;;;;;;;5019673;28;8849;-75
2021/01/19 07:35:14;;;;;;;;;74.75;60.25;;;;;;;;5018830;28;9049;-74
2021/01/19 07:37:40;;;;;;;;;69.25;58.75;;;;;;;;5016099;28;8837;-75
2021/01/19 07:40:16;;;;;;;;;77.00;61.25;;;;;;;;5021260;28;8859;-74
2021/01/19 07:42:42;;;;;;;;;68.75;56.00;;;;;;;;5025108;28;9707;-75
2021/01/19 07:45:08;;;;;;;;;63.75;53.50;;;;;;;;5025209;28;8850;-75
2021/01/19 07:47:36;;;;;;;;;61.75;52.25;;;;;;;;5022466;28;8865;-74
2021/01/19 07:50:03;;;;;;;;;65.75;51.25;;;;;;;;5023301;28;8954;-75
2021/01/19 07:52:35;;;;;;;;;60.75;52.75;;;;;;;;5024607;28;8950;-71
2021/01/19 07:55:11;;;;;;;;;65.25;51.50;;;;;;;;5028839;28;8926;-74
2021/01/19 07:57:37;;;;;;;;;67.50;52.50;;;;;;;;5024120;28;8839;-73
2021/01/19 08:00:04;;;;;;;;;65.00;53.25;;;;;;;;5029818;28;8865;-71
2021/01/19 08:02:30;;;;;;;;;69.00;50.00;;;;;;;;5026737;28;8955;-69
2021/01/19 08:05:01;;;;;;;;;64.50;50.00;;;;;;;;5022194;28;9633;-70
2021/01/19 08:07:37;;;;;;;;;68.50;56.75;;;;;;;;5028951;28;8963;-71
2021/01/19 08:10:03;;;;;;;;;65.75;53.00;;;;;;;;5027139;28;8847;-70
2021/01/19 08:12:35;;;;;;;;;66.25;54.00;;;;;;;;5024377;28;8854;-73
2021/01/19 08:15:03;;;;;;;;;68.00;53.00;;;;;;;;5027761;28;8984;-73
2021/01/19 08:17:35;;;;;;;;;71.50;58.25;;;;;;;;5025220;28;9021;-74
2021/01/19 08:20:05;;;;;;;;;70.50;59.00;;;;;;;;5024327;28;8963;-79
2021/01/19 08:22:31;;;;;;;;;79.25;61.25;;;;;;;;5025195;28;8828;-72
2021/01/19 08:25:00;;;;;;;;;76.00;59.00;;;;;;;;5024542;28;8856;-75
2021/01/19 08:27:27;;;;;;;;;71.25;58.00;;;;;;;;5022635;28;8835;-74
2021/01/19 08:29:55;;;;;;;;;65.00;53.75;;;;;;;;5024037;28;8965;-74
2021/01/19 08:32:21;;;;;;;;;80.25;60.50;;;;;;;;5025525;28;8828;-74
2021/01/19 08:34:48;;;;;;;;;77.00;61.50;;;;;;;;5024252;28;8841;-72
2021/01/19 08:37:16;;;;;;;;;69.25;54.75;;;;;;;;5025459;28;8966;-73
2021/01/19 08:39:49;;;;;;;;;63.25;54.00;;;;;;;;5025107;28;9103;-72
2021/01/19 08:42:15;;;;;;;;;75.75;58.25;;;;;;;;5024814;28;9569;-73
2021/01/19 08:44:41;;;;;;;;;72.25;59.50;;;;;;;;5022536;28;8851;-73
2021/01/19 08:47:07;;;;;;;;;68.00;55.25;;;;;;;;5024388;28;8841;-72
2021/01/19 08:49:34;;;;;;;;;72.75;57.25;;;;;;;;5022997;28;9571;-74
2021/01/19 08:52:00;;;;;;;;;63.50;49.75;;;;;;;;5023551;28;8902;-73
2021/01/19 08:54:31;;;;;;;;;70.00;56.25;;;;;;;;5020755;28;8863;-76
2021/01/19 08:56:57;;;;;;;;;51.00;45.00;;;;;;;;5029003;28;8836;-73
2021/01/19 08:59:22;;;;;;;;;71.25;59.25;;;;;;;;5028129;28;8867;-72
2021/01/19 09:01:49;;;;;;;;;65.50;54.50;;;;;;;;5026233;28;8840;-73
2021/01/19 09:04:22;;;;;;;;;69.50;55.75;;;;;;;;5029026;28;8845;-73
2021/01/19 09:06:48;;;;;;;;;76.75;61.75;;;;;;;;5025168;28;8874;-72
2021/01/19 09:09:19;;;;;;;;;73.00;59.50;;;;;;;;5026245;28;8837;-72
2021/01/19 09:11:46;;;;;;;;;78.25;62.00;;;;;;;;5028232;28;8829;-72
2021/01/19 09:14:12;;;;;;;;;77.75;61.75;;;;;;;;5022146;28;8862;-71
2021/01/19 09:16:38;;;;;;;;;66.75;56.00;;;;;;;;5021779;28;8867;-70
2021/01/19 09:19:06;;;;;;;;;72.25;58.50;;;;;;;;5026658;28;8839;-72
2021/01/19 09:21:32;;;;;;;;;71.50;58.75;;;;;;;;5022767;28;8964;-70
2021/01/19 09:23:58;;;;;;;;;71.25;55.50;;;;;;;;5024084;28;8887;-71
2021/01/19 09:26:24;;;;;;;;;67.25;54.25;;;;;;;;5023939;28;8957;-72
2021/01/19 09:28:51;;;;;;;;;77.00;59.00;;;;;;;;5021589;28;8893;-71
2021/01/19 09:31:18;;;;;;;;;70.25;56.50;;;;;;;;5026289;28;8850;-71
2021/01/19 09:33:45;;;;;;;;;72.75;57.00;;;;;;;;5023636;28;8840;-72
2021/01/19 09:36:11;;;;;;;;;75.50;57.75;;;;;;;;5021436;28;8845;-70
2021/01/19 09:38:38;;;;;;;;;74.50;60.00;;;;;;;;5022458;28;9020;-70
2021/01/19 09:41:04;;;;;;;;;70.25;59.00;;;;;;;;5022395;28;8829;-71
2021/01/19 09:43:31;;;;;;;;;74.75;59.00;;;;;;;;5021338;28;8938;-72
2021/01/19 09:45:59;;;;;;;;;78.00;60.75;;;;;;;;5023325;28;8989;-72
2021/01/19 09:48:26;;;;;;;;;75.25;58.25;;;;;;;;5024608;28;9678;-72
2021/01/19 09:50:52;;;;;;;;;74.75;59.00;;;;;;;;5024048;28;8817;-73
2021/01/19 09:53:24;;;;;;;;;71.50;55.50;;;;;;;;5023926;28;8984;-71
2021/01/19 09:55:51;;;;;;;;;74.75;59.75;;;;;;;;5024149;28;8973;-72
2021/01/19 09:58:20;;;;;;;;;83.00;63.50;;;;;;;;5024436;28;8839;-72
2021/01/19 10:00:46;;;;;;;;;73.75;58.50;;;;;;;;5022714;28;8903;-74
2021/01/19 10:03:13;;;;;;;;;82.50;65.75;;;;;;;;5021052;28;8987;-71
2021/01/19 10:05:39;;;;;;;;;80.00;61.75;;;;;;;;5017223;28;9022;-72
2021/01/19 10:08:07;;;;;;;;;77.00;63.25;;;;;;;;5021863;28;8845;-71
2021/01/19 10:10:34;;;;;;;;;79.75;62.50;;;;;;;;5021338;28;8989;-73
2021/01/19 10:13:02;;;;;;;;;78.75;61.00;;;;;;;;5017727;28;8859;-72
2021/01/19 10:15:28;;;;;;;;;80.00;63.25;;;;;;;;5022556;28;8848;-70
2021/01/19 10:17:56;;;;;;;;;82.25;65.75;;;;;;;;5021022;28;8969;-71
2021/01/19 10:20:23;;;;;;;;;77.25;60.00;;;;;;;;5020864;28;8838;-71
2021/01/19 10:22:56;;;;;;;;;82.50;65.25;;;;;;;;5019211;28;8829;-74
2021/01/19 10:25:26;;;;;;;;;77.75;60.75;;;;;;;;5021450;28;8964;-74
2021/01/19 10:27:55;;;;;;;;;71.25;56.25;;;;;;;;5021675;28;9604;-71
